Time;durP1;ratioP1;P1;durP2;ratioP2;P2;SDS_P1;SDS_P2;PMS_P1;PMS_P2;Temp;Humidity;BMP_temperature;BMP_pressure;BME280_temperature;BME280_humidity;BME280_pressure;Samples;Min_cycle;Max_cycle;Signal;HPM_P1;HPM_P2
2021/04/30 00:01:58;;;;;;;26.08;20.58;;;26.40;66.90;;;;;;5066299;28;20118;-78
2021/04/30 00:04:25;;;;;;;24.95;19.30;;;26.30;67.90;;;;;;5060860;28;20557;-79
2021/04/30 00:06:53;;;;;;;21.77;19.42;;;25.60;69.00;;;;;;5070877;28;21008;-82
2021/04/30 00:09:20;;;;;;;25.58;19.70;;;26.30;68.60;;;;;;5060328;28;20032;-81
2021/04/30 00:11:49;;;;;;;22.67;18.55;;;26.50;67.50;;;;;;5064515;28;20623;-82
2021/04/30 00:14:18;;;;;;;25.73;21.30;;;26.80;66.80;;;;;;5065204;28;20033;-78
2021/04/30 00:16:46;;;;;;;27.95;17.88;;;27.10;66.50;;;;;;5065328;28;20032;-77
2021/04/30 00:19:14;;;;;;;23.67;19.67;;;27.50;65.00;;;;;;5069119;28;20378;-78
2021/04/30 00:21:41;;;;;;;20.13;17.35;;;27.40;64.30;;;;;;5072183;28;20031;-76
2021/04/30 00:24:11;;;;;;;24.58;19.17;;;27.90;64.80;;;;;;5062526;28;20028;-81
2021/04/30 00:26:39;;;;;;;19.10;17.23;;;27.90;62.20;;;;;;5057821;28;20025;-79
2021/04/30 00:29:06;;;;;;;17.05;15.30;;;28.00;63.00;;;;;;5067897;28;20036;-81
2021/04/30 00:31:35;;;;;;;20.55;16.52;;;27.80;62.40;;;;;;5076872;28;20031;-80
2021/04/30 00:34:04;;;;;;;18.55;16.67;;;28.30;62.60;;;;;;5070349;28;20478;-79
2021/04/30 00:36:32;;;;;;;17.88;15.07;;;28.60;61.90;;;;;;5067115;28;20483;-82
2021/04/30 00:39:00;;;;;;;15.75;12.80;;;28.80;61.90;;;;;;5073266;28;20024;-79
2021/04/30 00:41:27;;;;;;;13.38;11.75;;;29.10;61.30;;;;;;5069524;28;20063;-79
2021/04/30 00:43:55;;;;;;;11.15;9.57;;;29.40;59.50;;;;;;5072335;28;20156;-80
2021/04/30 00:46:22;;;;;;;13.07;11.77;;;29.30;58.70;;;;;;5071263;28;20031;-80
2021/04/30 00:48:49;;;;;;;13.40;12.00;;;29.50;60.30;;;;;;5075119;28;20053;-80
2021/04/30 00:51:17;;;;;;;12.50;11.20;;;29.50;58.60;;;;;;5068805;28;20028;-82
2021/04/30 00:53:44;;;;;;;13.40;12.00;;;29.50;60.60;;;;;;5076964;28;20020;-82
2021/04/30 00:56:12;;;;;;;11.32;9.77;;;29.60;60.90;;;;;;5072099;28;20021;-80
2021/04/30 00:58:39;;;;;;;11.20;9.57;;;29.70;59.60;;;;;;5070087;28;20035;-79
2021/04/30 01:01:08;;;;;;;12.50;10.07;;;29.80;57.40;;;;;;5072591;28;20040;-80
2021/04/30 01:03:36;;;;;;;10.65;8.38;;;29.50;59.40;;;;;;5072078;28;20385;-82
2021/04/30 01:06:04;;;;;;;9.43;7.28;;;29.50;58.90;;;;;;5074151;28;20028;-79
2021/04/30 01:08:32;;;;;;;12.95;7.18;;;29.70;58.20;;;;;;5077133;28;20023;-79
2021/04/30 01:11:00;;;;;;;8.43;5.93;;;28.60;59.00;;;;;;5069034;28;22056;-79
2021/04/30 01:13:27;;;;;;;5.55;4.95;;;28.90;58.00;;;;;;5076345;28;20020;-80
2021/04/30 01:15:55;;;;;;;7.53;4.38;;;28.80;61.40;;;;;;5067320;28;20055;-79
2021/04/30 01:18:22;;;;;;;4.88;4.43;;;29.40;57.60;;;;;;5074303;28;20032;-78
2021/04/30 01:20:50;;;;;;;7.03;5.47;;;29.30;57.70;;;;;;5073882;28;20020;-84
2021/04/30 01:23:18;;;;;;;7.40;5.65;;;29.30;57.90;;;;;;5074624;28;20099;-79
2021/04/30 01:25:45;;;;;;;9.38;5.22;;;29.50;57.70;;;;;;5067580;28;20028;-82
2021/04/30 01:28:13;;;;;;;8.77;6.28;;;29.30;56.80;;;;;;5069468;28;20032;-81
2021/04/30 01:30:40;;;;;;;10.02;6.60;;;29.40;57.60;;;;;;5069682;28;20395;-80
2021/04/30 01:33:22;;;;;;;10.98;6.80;;;28.80;59.80;;;;;;5075939;28;20028;-81
2021/04/30 01:35:49;;;;;;;10.60;6.82;;;28.50;59.50;;;;;;5077448;28;20016;-79
2021/04/30 01:38:17;;;;;;;7.53;5.85;;;28.60;61.10;;;;;;5074621;28;20045;-84
2021/04/30 01:40:44;;;;;;;7.25;5.75;;;29.20;60.00;;;;;;5066571;28;20410;-83
2021/04/30 01:43:17;;;;;;;6.18;4.10;;;29.60;57.90;;;;;;5064327;28;20056;-82
2021/04/30 01:45:53;;;;;;;6.68;3.53;;;30.20;55.00;;;;;;5062543;28;20025;-81
2021/04/30 01:48:29;;;;;;;4.85;2.95;;;29.20;56.00;;;;;;5069267;28;20036;-86
2021/04/30 01:50:59;;;;;;;12.18;5.63;;;28.00;60.00;;;;;;5063499;28;20028;-79
2021/04/30 01:53:31;;;;;;;7.28;4.70;;;27.90;57.90;;;;;;5071377;28;20040;-79
2021/04/30 01:56:00;;;;;;;5.82;4.07;;;28.10;59.30;;;;;;5059246;28;20059;-84
2021/04/30 01:58:28;;;;;;;5.60;4.05;;;28.80;59.80;;;;;;5068120;28;20478;-82
2021/04/30 02:00:58;;;;;;;6.45;4.90;;;29.60;57.40;;;;;;5070860;28;20036;-79
2021/04/30 02:03:26;;;;;;;8.07;5.30;;;29.80;56.80;;;;;;5083322;28;20039;-78
2021/04/30 02:05:55;;;;;;;5.97;4.78;;;29.50;55.90;;;;;;5069946;28;20020;-80
2021/04/30 02:08:23;;;;;;;6.57;4.82;;;29.20;56.60;;;;;;5076130;28;20497;-81
2021/04/30 02:10:52;;;;;;;5.70;4.32;;;29.20;56.10;;;;;;5076349;28;20114;-78
2021/04/30 02:13:21;;;;;;;7.85;4.88;;;29.10;56.70;;;;;;5080144;28;20024;-80
2021/04/30 02:15:53;;;;;;;5.25;3.75;;;29.80;57.10;;;;;;5082720;28;20117;-78
2021/04/30 02:18:22;;;;;;;7.40;4.25;;;30.50;52.90;;;;;;5085385;28;20055;-79
2021/04/30 02:20:50;;;;;;;5.45;3.90;;;30.70;52.70;;;;;;5072998;28;20115;-80
2021/04/30 02:23:19;;;;;;;5.00;3.97;;;30.50;52.20;;;;;;5071800;28;20024;-80
2021/04/30 02:25:49;;;;;;;3.47;2.72;;;29.20;54.30;;;;;;5079929;28;20038;-79
2021/04/30 02:28:16;;;;;;;3.80;3.50;;;29.20;54.90;;;;;;5082094;28;20475;-78
2021/04/30 02:30:44;;;;;;;5.47;3.42;;;29.80;53.40;;;;;;5074629;28;20040;-79
2021/04/30 02:33:12;;;;;;;4.75;2.70;;;29.90;52.50;;;;;;5075822;28;20071;-79
2021/04/30 02:35:41;;;;;;;4.15;3.17;;;29.90;52.70;;;;;;5072494;28;20047;-79
2021/04/30 02:38:11;;;;;;;7.80;3.22;;;29.50;52.80;;;;;;5078523;28;20551;-78
2021/04/30 02:40:41;;;;;;;4.97;3.03;;;29.50;53.60;;;;;;5075530;28;20029;-80
2021/04/30 02:43:11;;;;;;;4.25;3.20;;;29.40;52.30;;;;;;5076128;28;20028;-80
2021/04/30 02:45:41;;;;;;;4.45;2.40;;;29.80;52.60;;;;;;5080884;28;20072;-79
2021/04/30 02:48:14;;;;;;;3.30;2.35;;;29.70;53.90;;;;;;5074157;28;20039;-79
2021/04/30 02:50:42;;;;;;;4.60;3.40;;;29.90;52.20;;;;;;5073551;28;20135;-80
2021/04/30 02:53:10;;;;;;;3.53;2.65;;;28.40;55.30;;;;;;5070092;28;20064;-80
2021/04/30 02:55:37;;;;;;;6.10;3.25;;;27.20;56.60;;;;;;5078457;28;20016;-80
2021/04/30 02:58:05;;;;;;;3.72;2.50;;;26.50;59.70;;;;;;5064996;28;20063;-79
2021/04/30 03:00:32;;;;;;;2.97;2.22;;;26.00;60.20;;;;;;5074511;28;20101;-80
2021/04/30 03:03:02;;;;;;;4.28;2.70;;;26.40;59.80;;;;;;5071459;28;20024;-79
2021/04/30 03:05:32;;;;;;;3.08;2.40;;;28.00;59.30;;;;;;5072305;28;20040;-78
2021/04/30 03:08:00;;;;;;;4.22;2.53;;;29.00;55.50;;;;;;5077779;28;20130;-80
2021/04/30 03:10:29;;;;;;;3.95;2.63;;;29.80;54.50;;;;;;5075778;28;20508;-80
2021/04/30 03:12:57;;;;;;;2.90;1.85;;;30.60;51.90;;;;;;5074645;28;20516;-79
2021/04/30 03:15:27;;;;;;;4.07;1.85;;;29.30;51.40;;;;;;5074573;28;20375;-79
2021/04/30 03:17:55;;;;;;;2.63;2.17;;;28.60;52.60;;;;;;5073794;28;20032;-81
2021/04/30 03:20:22;;;;;;;4.43;2.20;;;28.60;53.40;;;;;;5067198;28;20039;-79
2021/04/30 03:22:53;;;;;;;4.07;2.22;;;28.60;53.40;;;;;;5076670;28;20420;-80
2021/04/30 03:25:21;;;;;;;3.67;2.35;;;27.90;54.70;;;;;;5078881;28;20081;-78
2021/04/30 03:27:48;;;;;;;5.45;2.17;;;27.00;56.70;;;;;;5072725;28;20025;-81
2021/04/30 03:30:17;;;;;;;2.10;1.70;;;26.40;58.70;;;;;;5063920;28;20087;-80
2021/04/30 03:32:44;;;;;;;4.47;2.50;;;25.70;59.10;;;;;;5067078;28;20136;-78
2021/04/30 03:35:18;;;;;;;3.90;2.72;;;25.80;60.10;;;;;;5065787;28;20481;-80
2021/04/30 03:37:47;;;;;;;3.53;2.00;;;25.40;60.50;;;;;;5070625;28;20027;-80
2021/04/30 03:40:16;;;;;;;4.05;1.67;;;25.30;60.60;;;;;;5077316;28;20028;-80
2021/04/30 03:42:43;;;;;;;4.85;2.38;;;25.40;62.40;;;;;;5069563;28;20020;-80
2021/04/30 03:45:11;;;;;;;3.47;1.70;;;25.30;61.90;;;;;;5078266;28;20025;-79
2021/04/30 03:47:39;;;;;;;3.03;1.80;;;25.30;60.60;;;;;;5083104;28;20013;-80
2021/04/30 03:50:07;;;;;;;2.15;1.95;;;25.30;61.30;;;;;;5077328;28;20036;-80
2021/04/30 03:52:34;;;;;;;3.35;1.77;;;25.20;61.70;;;;;;5076451;28;20021;-78
2021/04/30 03:55:02;;;;;;;3.03;2.13;;;25.00;61.20;;;;;;5078042;28;20038;-79
2021/04/30 03:57:29;;;;;;;3.80;2.20;;;25.00;61.50;;;;;;5076554;28;20027;-80
2021/04/30 03:59:57;;;;;;;6.63;3.70;;;24.70;62.70;;;;;;5072793;28;20086;-81
2021/04/30 04:02:24;;;;;;;5.03;3.35;;;24.60;63.50;;;;;;5076438;28;20028;-80
2021/04/30 04:04:52;;;;;;;5.13;3.63;;;24.50;63.80;;;;;;5076015;28;20036;-80
2021/04/30 04:07:20;;;;;;;3.75;3.10;;;24.60;63.70;;;;;;5076330;28;20048;-81
2021/04/30 04:09:47;;;;;;;4.25;2.53;;;24.60;64.40;;;;;;5082211;28;20480;-79
2021/04/30 04:12:14;;;;;;;5.93;3.00;;;24.70;63.50;;;;;;5085471;28;20035;-81
2021/04/30 04:14:43;;;;;;;3.75;2.88;;;25.30;62.60;;;;;;5064532;28;20025;-80
2021/04/30 04:17:12;;;;;;;5.30;2.75;;;25.70;61.70;;;;;;5074072;28;20355;-79
2021/04/30 04:19:40;;;;;;;5.78;2.95;;;25.60;61.10;;;;;;5075196;28;20462;-79
2021/04/30 04:22:07;;;;;;;4.13;2.92;;;25.80;61.50;;;;;;5077391;28;20063;-79
2021/04/30 04:24:35;;;;;;;5.38;2.45;;;25.70;61.20;;;;;;5079777;28;20032;-79
2021/04/30 04:27:02;;;;;;;5.78;2.92;;;25.40;61.30;;;;;;5083795;28;20037;-79
2021/04/30 04:29:29;;;;;;;3.17;2.53;;;25.10;61.80;;;;;;5075706;28;20400;-81
2021/04/30 04:31:57;;;;;;;3.95;2.65;;;24.70;62.80;;;;;;5072043;28;20099;-79
2021/04/30 04:34:24;;;;;;;5.38;2.90;;;24.50;63.60;;;;;;5077310;28;20016;-80
2021/04/30 04:36:51;;;;;;;2.95;2.53;;;24.40;63.70;;;;;;5072852;28;20032;-79
2021/04/30 04:39:20;;;;;;;6.82;2.75;;;24.40;64.10;;;;;;5073316;28;20028;-80
2021/04/30 04:41:47;;;;;;;5.22;3.22;;;24.60;63.30;;;;;;5078485;28;20027;-79
2021/04/30 04:44:15;;;;;;;6.05;4.18;;;24.70;63.90;;;;;;5085179;28;20024;-79
2021/04/30 04:46:42;;;;;;;6.55;4.07;;;25.00;63.30;;;;;;5077247;28;20020;-80
2021/04/30 04:49:09;;;;;;;6.80;4.60;;;25.20;62.50;;;;;;5084782;28;20490;-79
2021/04/30 04:51:37;;;;;;;8.85;5.07;;;25.30;62.20;;;;;;5079222;28;20043;-80
2021/04/30 04:54:06;;;;;;;11.68;5.78;;;25.20;62.40;;;;;;5087758;28;20039;-79
2021/04/30 04:56:35;;;;;;;17.05;7.55;;;25.00;63.20;;;;;;5079171;28;20062;-80
2021/04/30 04:59:02;;;;;;;9.10;6.70;;;24.80;63.90;;;;;;5080748;28;20028;-79
2021/04/30 05:01:30;;;;;;;9.23;6.50;;;24.60;64.60;;;;;;5075071;28;20382;-79
2021/04/30 05:03:57;;;;;;;11.43;7.18;;;24.30;64.80;;;;;;5081228;28;20535;-79
2021/04/30 05:06:25;;;;;;;6.43;5.80;;;24.00;65.50;;;;;;5080395;28;20081;-79
2021/04/30 05:08:52;;;;;;;11.13;6.00;;;23.90;66.30;;;;;;5085276;28;20115;-78
2021/04/30 05:11:20;;;;;;;8.23;5.47;;;23.70;66.40;;;;;;5096539;28;20036;-79
2021/04/30 05:13:47;;;;;;;8.80;5.20;;;23.60;67.00;;;;;;5084994;28;20024;-80
2021/04/30 05:16:18;;;;;;;6.43;5.57;;;23.50;67.10;;;;;;5077100;28;20028;-79
2021/04/30 05:18:45;;;;;;;7.00;5.30;;;23.50;67.50;;;;;;5081993;28;20425;-81
2021/04/30 05:21:13;;;;;;;7.40;5.07;;;23.50;67.40;;;;;;5079308;28;20020;-80
2021/04/30 05:23:40;;;;;;;8.05;5.35;;;23.50;67.40;;;;;;5076005;28;20036;-80
2021/04/30 05:26:08;;;;;;;6.50;5.03;;;23.60;67.70;;;;;;5066725;28;20024;-79
2021/04/30 05:28:37;;;;;;;9.63;6.82;;;23.70;67.50;;;;;;5079577;28;20084;-80
2021/04/30 05:31:04;;;;;;;15.80;8.18;;;23.70;68.40;;;;;;5079096;28;20689;-80
2021/04/30 05:33:32;;;;;;;9.35;8.18;;;23.60;69.40;;;;;;5084063;28;20032;-80
2021/04/30 05:35:59;;;;;;;12.63;7.50;;;23.50;70.20;;;;;;5082049;28;20029;-80
2021/04/30 05:38:27;;;;;;;9.35;8.35;;;23.40;71.00;;;;;;5077574;28;20106;-81
2021/04/30 05:40:54;;;;;;;11.85;7.15;;;23.30;71.90;;;;;;5073966;28;20104;-79
2021/04/30 05:43:22;;;;;;;10.18;6.60;;;23.20;72.10;;;;;;5083206;28;20106;-80
2021/04/30 05:45:49;;;;;;;9.38;5.28;;;23.20;72.80;;;;;;5078439;28;20039;-80
2021/04/30 05:48:20;;;;;;;7.97;4.57;;;23.20;72.80;;;;;;5080984;28;20455;-81
2021/04/30 05:50:47;;;;;;;4.70;3.95;;;23.20;73.00;;;;;;5081691;28;20417;-80
2021/04/30 05:53:14;;;;;;;7.70;4.00;;;23.20;73.00;;;;;;5081079;28;20100;-79
2021/04/30 05:55:42;;;;;;;4.50;3.70;;;23.30;73.00;;;;;;5077261;28;20041;-81
2021/04/30 05:58:09;;;;;;;3.72;2.95;;;23.20;72.70;;;;;;5076821;28;20025;-80
2021/04/30 06:00:36;;;;;;;3.05;2.75;;;23.10;72.90;;;;;;5072087;28;20016;-79
2021/04/30 06:03:04;;;;;;;4.78;2.92;;;23.00;73.10;;;;;;5078087;28;20024;-80
2021/04/30 06:05:31;;;;;;;6.22;3.00;;;22.90;73.20;;;;;;5074163;28;20081;-81
2021/04/30 06:07:59;;;;;;;3.05;2.75;;;23.00;73.50;;;;;;5080015;28;20029;-80
2021/04/30 06:10:26;;;;;;;3.95;2.83;;;22.90;73.30;;;;;;5079135;28;20036;-80
2021/04/30 06:12:54;;;;;;;5.60;3.13;;;22.90;73.50;;;;;;5073214;28;20039;-79
2021/04/30 06:15:21;;;;;;;5.32;3.25;;;22.90;73.70;;;;;;5073459;28;20027;-79
2021/04/30 06:17:50;;;;;;;4.30;2.90;;;22.80;74.10;;;;;;5070063;28;20028;-81
2021/04/30 06:20:17;;;;;;;3.65;2.85;;;22.80;74.60;;;;;;5075266;28;20363;-79
2021/04/30 06:22:45;;;;;;;4.97;2.40;;;22.70;75.30;;;;;;5076132;28;20390;-79
2021/04/30 06:25:12;;;;;;;4.60;2.90;;;22.60;76.00;;;;;;5078367;28;20028;-81
2021/04/30 06:27:41;;;;;;;6.35;2.22;;;22.50;76.70;;;;;;5076569;28;20475;-81
2021/04/30 06:30:09;;;;;;;3.70;2.60;;;22.40;77.40;;;;;;5073042;28;20058;-80
2021/04/30 06:32:38;;;;;;;3.28;2.33;;;22.40;78.20;;;;;;5073717;28;20095;-79
2021/04/30 06:35:08;;;;;;;5.65;2.28;;;22.40;78.50;;;;;;5072573;28;20706;-79
2021/04/30 06:37:36;;;;;;;4.15;1.73;;;22.30;78.80;;;;;;5074750;28;20123;-80
2021/04/30 06:40:04;;;;;;;3.10;1.85;;;22.20;79.20;;;;;;5071959;28;20495;-80
2021/04/30 06:42:32;;;;;;;2.60;1.60;;;22.10;79.40;;;;;;5077617;28;20024;-81
2021/04/30 06:44:59;;;;;;;3.30;2.33;;;22.10;79.70;;;;;;5073058;28;20349;-81
2021/04/30 06:47:27;;;;;;;3.08;1.77;;;22.00;80.20;;;;;;5081864;28;20051;-81
2021/04/30 06:49:54;;;;;;;3.72;2.95;;;21.90;80.40;;;;;;5072233;28;20064;-80
2021/04/30 06:52:22;;;;;;;4.57;1.75;;;21.80;81.50;;;;;;5077925;28;20033;-80
2021/04/30 06:54:50;;;;;;;2.88;1.63;;;21.70;81.10;;;;;;5073404;28;20032;-82
2021/04/30 06:57:18;;;;;;;4.13;1.30;;;21.70;81.50;;;;;;5085327;28;20024;-81
2021/04/30 06:59:45;;;;;;;3.17;1.33;;;21.50;81.30;;;;;;5075411;28;20033;-80
2021/04/30 07:02:12;;;;;;;2.53;1.27;;;21.50;81.60;;;;;;5082641;28;20412;-80
2021/04/30 07:04:40;;;;;;;3.67;1.30;;;21.40;82.00;;;;;;5075186;28;20036;-81
2021/04/30 07:07:07;;;;;;;1.52;1.30;;;21.30;82.00;;;;;;5079685;28;20490;-81
2021/04/30 07:09:35;;;;;;;3.13;1.40;;;21.30;82.40;;;;;;5077694;28;20032;-79
2021/04/30 07:12:02;;;;;;;4.97;1.42;;;21.20;82.50;;;;;;5076100;28;20505;-80
2021/04/30 07:14:29;;;;;;;3.30;0.98;;;21.10;82.60;;;;;;5073802;28;20440;-80
2021/04/30 07:16:57;;;;;;;4.53;1.52;;;21.00;83.00;;;;;;5073066;28;20044;-79
2021/04/30 07:19:24;;;;;;;4.07;1.58;;;20.90;83.30;;;;;;5073317;28;20416;-80
2021/04/30 07:21:51;;;;;;;3.45;1.25;;;20.80;83.50;;;;;;5074859;28;20028;-80
2021/04/30 07:24:19;;;;;;;5.38;1.40;;;20.80;83.70;;;;;;5066871;28;20572;-80
2021/04/30 07:26:46;;;;;;;4.43;1.50;;;20.70;83.90;;;;;;5076582;28;20032;-81
2021/04/30 07:29:14;;;;;;;3.17;1.00;;;20.70;84.30;;;;;;5078480;28;20129;-79
2021/04/30 07:31:41;;;;;;;3.00;1.10;;;20.60;84.60;;;;;;5075452;28;20073;-80
2021/04/30 07:34:08;;;;;;;2.55;1.20;;;20.50;85.00;;;;;;5074577;28;20040;-80
2021/04/30 07:36:36;;;;;;;1.77;1.40;;;20.50;85.30;;;;;;5077365;28;20046;-80
2021/04/30 07:39:05;;;;;;;3.95;1.00;;;20.40;85.60;;;;;;5071130;28;20028;-81
2021/04/30 07:41:32;;;;;;;1.75;0.95;;;20.40;86.00;;;;;;5076352;28;20110;-79
2021/04/30 07:43:59;;;;;;;3.88;1.60;;;20.40;86.30;;;;;;5074947;28;20047;-80
2021/04/30 07:46:27;;;;;;;3.88;1.15;;;20.30;86.80;;;;;;5072054;28;20476;-82
2021/04/30 07:48:54;;;;;;;2.55;1.00;;;20.20;87.00;;;;;;5068429;28;20183;-81
2021/04/30 07:51:24;;;;;;;2.83;1.60;;;20.20;87.40;;;;;;5080048;28;20044;-80
2021/04/30 07:53:51;;;;;;;5.18;1.30;;;20.10;87.80;;;;;;5080209;28;20444;-81
2021/04/30 07:56:19;;;;;;;2.63;1.15;;;20.10;88.30;;;;;;5073554;28;20089;-79
2021/04/30 07:58:47;;;;;;;2.38;0.95;;;20.00;88.80;;;;;;5078003;28;20047;-80
2021/04/30 08:01:14;;;;;;;3.22;1.02;;;20.00;89.30;;;;;;5070561;28;20024;-80
2021/04/30 08:03:41;;;;;;;3.03;1.00;;;20.00;89.80;;;;;;5078928;28;20024;-80
2021/04/30 08:06:09;;;;;;;7.18;1.23;;;19.90;90.10;;;;;;5078262;28;20043;-81
2021/04/30 08:08:37;;;;;;;9.00;1.02;;;19.80;90.20;;;;;;5077236;28;20042;-80
2021/04/30 08:11:05;;;;;;;3.17;0.93;;;19.80;90.40;;;;;;5074545;28;20048;-80
2021/04/30 08:13:32;;;;;;;5.63;0.93;;;19.70;90.70;;;;;;5072427;28;20024;-81
2021/04/30 08:16:00;;;;;;;4.60;0.68;;;19.70;90.70;;;;;;5074713;28;20024;-80
2021/04/30 08:18:27;;;;;;;4.95;1.48;;;19.60;90.90;;;;;;5079235;28;20531;-80
2021/04/30 08:20:55;;;;;;;3.40;0.60;;;19.50;90.90;;;;;;5065297;28;20064;-81
2021/04/30 08:23:22;;;;;;;4.88;0.75;;;19.50;90.90;;;;;;5080969;28;20468;-80
2021/04/30 08:25:50;;;;;;;4.85;0.50;;;19.50;91.10;;;;;;5071132;28;20033;-82
2021/04/30 08:28:17;;;;;;;3.25;1.23;;;19.50;91.10;;;;;;5076300;28;20390;-81
2021/04/30 08:30:45;;;;;;;5.43;0.65;;;19.50;91.20;;;;;;5073122;28;20039;-81
2021/04/30 08:33:12;;;;;;;6.85;0.70;;;19.40;91.30;;;;;;5083119;28;20036;-81
2021/04/30 08:35:39;;;;;;;4.75;1.08;;;19.40;91.30;;;;;;5072821;28;20024;-79
2021/04/30 08:38:07;;;;;;;7.22;1.42;;;19.40;91.50;;;;;;5073572;28;20076;-80
2021/04/30 08:40:34;;;;;;;3.03;0.75;;;19.30;91.60;;;;;;5073974;28;20020;-81
2021/04/30 08:43:02;;;;;;;2.42;0.60;;;19.30;91.70;;;;;;5079504;28;20028;-80
2021/04/30 08:45:29;;;;;;;4.88;0.82;;;19.30;91.80;;;;;;5078654;28;20469;-81
2021/04/30 08:47:57;;;;;;;3.28;1.05;;;19.30;91.90;;;;;;5078021;28;20028;-80
2021/04/30 08:50:24;;;;;;;1.77;1.02;;;19.20;91.90;;;;;;5066407;28;20121;-82
2021/04/30 08:52:51;;;;;;;3.30;0.80;;;19.20;91.90;;;;;;5077932;28;20039;-82
2021/04/30 08:55:19;;;;;;;4.28;0.90;;;19.20;91.90;;;;;;5074840;28;20114;-80
2021/04/30 08:57:53;;;;;;;2.45;0.70;;;19.20;91.90;;;;;;5083101;28;20024;-81
2021/04/30 09:00:24;;;;;;;3.45;2.95;;;19.10;92.10;;;;;;5074815;28;21743;-81
2021/04/30 09:02:51;;;;;;;8.65;5.93;;;19.10;92.10;;;;;;5079735;28;20040;-80
2021/04/30 09:05:30;;;;;;;27.88;19.77;;;19.00;92.10;;;;;;5075946;28;20353;-80
2021/04/30 09:08:02;;;;;;;23.67;17.63;;;19.00;92.20;;;;;;5071130;28;20482;-81
2021/04/30 09:10:40;;;;;;;23.15;14.85;;;18.90;92.30;;;;;;5073062;28;20056;-80
2021/04/30 09:13:12;;;;;;;40.72;27.63;;;18.90;92.30;;;;;;5076095;28;20025;-81
2021/04/30 09:15:41;;;;;;;43.00;31.77;;;18.80;92.30;;;;;;5077197;28;20036;-82
2021/04/30 09:18:28;;;;;;;59.20;40.40;;;18.80;92.40;;;;;;5080272;28;20073;-79
2021/04/30 09:21:11;;;;;;;96.72;61.92;;;18.70;92.40;;;;;;5072806;28;20024;-80
2021/04/30 09:23:47;;;;;;;83.15;55.30;;;18.60;92.70;;;;;;5075838;28;20028;-80
2021/04/30 09:26:35;;;;;;;52.80;35.28;;;18.60;92.80;;;;;;5070223;28;20028;-81
2021/04/30 09:29:09;;;;;;;42.72;30.13;;;18.60;92.80;;;;;;5078035;28;20102;-81
2021/04/30 09:31:44;;;;;;;50.40;32.05;;;18.60;92.90;;;;;;5068435;28;20499;-82
2021/04/30 09:34:23;;;;;;;52.55;34.15;;;18.50;93.00;;;;;;5075561;28;20151;-81
2021/04/30 09:37:12;;;;;;;79.05;55.42;;;18.50;93.10;;;;;;5079623;28;20115;-81
2021/04/30 09:39:51;;;;;;;67.95;52.28;;;18.40;93.10;;;;;;5072854;28;20032;-81
2021/04/30 09:42:22;;;;;;;60.53;44.20;;;18.40;93.10;;;;;;5075720;28;20033;-81
2021/04/30 09:44:56;;;;;;;53.25;41.58;;;18.30;93.20;;;;;;5073804;28;20062;-80
2021/04/30 09:47:27;;;;;;;38.50;32.55;;;18.30;93.30;;;;;;5094184;28;20039;-81
2021/04/30 09:50:03;;;;;;;30.65;25.60;;;18.20;93.30;;;;;;5081770;28;20140;-80
2021/04/30 09:52:31;;;;;;;17.45;13.93;;;18.20;93.20;;;;;;5079149;28;20031;-80
2021/04/30 09:55:05;;;;;;;10.48;8.52;;;18.10;93.10;;;;;;5073315;28;20096;-80
2021/04/30 09:57:34;;;;;;;9.90;5.47;;;18.00;93.10;;;;;;5077545;28;20031;-82
2021/04/30 10:00:04;;;;;;;4.43;3.83;;;17.90;93.20;;;;;;5071768;28;20383;-81
2021/04/30 10:02:35;;;;;;;3.25;1.75;;;17.90;93.20;;;;;;5074559;28;20017;-79
2021/04/30 10:05:22;;;;;;;3.45;1.73;;;17.80;93.30;;;;;;5076479;28;20039;-79
2021/04/30 10:07:50;;;;;;;6.60;1.73;;;17.70;93.40;;;;;;5074819;28;20016;-82
2021/04/30 10:10:20;;;;;;;2.03;1.02;;;17.60;93.60;;;;;;5090318;28;20099;-80
2021/04/30 10:12:49;;;;;;;5.57;1.30;;;17.60;93.60;;;;;;5100003;28;20023;-79
2021/04/30 10:15:21;;;;;;;3.22;1.33;;;17.50;93.70;;;;;;5096546;28;20028;-80
2021/04/30 10:17:53;;;;;;;3.88;1.30;;;17.60;93.80;;;;;;5088409;28;20058;-80
2021/04/30 10:20:21;;;;;;;5.15;2.47;;;17.50;93.90;;;;;;5070030;28;20036;-81
2021/04/30 10:22:50;;;;;;;5.13;1.98;;;17.60;93.90;;;;;;5076851;28;20024;-83
2021/04/30 10:25:20;;;;;;;2.78;1.50;;;17.50;93.90;;;;;;5081972;28;20032;-79
2021/04/30 10:27:50;;;;;;;2.35;1.67;;;17.50;94.00;;;;;;5082566;28;20099;-81
2021/04/30 10:30:39;;;;;;;4.00;1.73;;;17.50;93.90;;;;;;5079613;28;20032;-82
2021/04/30 10:33:29;;;;;;;5.57;1.88;;;17.40;93.90;;;;;;5066525;28;20317;-82
2021/04/30 10:36:07;;;;;;;3.45;1.70;;;17.40;94.10;;;;;;5075690;28;20104;-83
2021/04/30 10:39:05;;;;;;;7.05;2.10;;;17.40;94.20;;;;;;5077470;28;20024;-82
2021/04/30 10:41:41;;;;;;;6.68;2.15;;;17.30;94.50;;;;;;5061413;28;20536;-82
2021/04/30 10:44:24;;;;;;;6.30;2.55;;;17.20;94.80;;;;;;5071247;28;20028;-81
2021/04/30 10:47:12;;;;;;;3.03;1.77;;;17.20;94.90;;;;;;5072272;28;20528;-82
2021/04/30 10:49:42;;;;;;;3.60;1.80;;;17.20;95.00;;;;;;5071757;28;20044;-82
2021/04/30 10:52:19;;;;;;;4.90;1.83;;;17.10;94.90;;;;;;5080375;28;20027;-82
2021/04/30 10:54:59;;;;;;;5.85;2.60;;;17.10;95.00;;;;;;5071549;28;20028;-82
2021/04/30 10:57:27;;;;;;;5.63;1.90;;;17.10;94.90;;;;;;5073784;28;20435;-80
2021/04/30 10:59:55;;;;;;;7.45;1.83;;;17.00;94.90;;;;;;5072980;28;20029;-82
2021/04/30 11:02:30;;;;;;;2.88;2.00;;;16.90;95.00;;;;;;5075412;28;20111;-82
2021/04/30 11:05:12;;;;;;;4.50;2.28;;;16.90;94.90;;;;;;5078029;28;21553;-82
2021/04/30 11:07:51;;;;;;;3.13;1.80;;;16.80;95.50;;;;;;5071028;28;20055;-82
2021/04/30 11:13:09;;;;;;;6.15;2.35;;;16.70;95.00;;;;;;5082859;28;20024;-82
2021/04/30 11:15:47;;;;;;;2.88;1.95;;;16.60;94.80;;;;;;5079577;28;20040;-82
2021/04/30 11:18:14;;;;;;;4.43;2.70;;;16.60;94.70;;;;;;5080250;28;20024;-82
2021/04/30 11:20:56;;;;;;;4.22;2.83;;;16.60;94.70;;;;;;5076606;28;20033;-83
2021/04/30 11:23:46;;;;;;;4.70;2.33;;;16.50;94.80;;;;;;5077063;28;20028;-83
2021/04/30 11:26:16;;;;;;;2.22;1.73;;;16.50;94.80;;;;;;5076272;28;20106;-81
2021/04/30 11:28:43;;;;;;;2.42;2.03;;;16.40;94.90;;;;;;5082279;28;20038;-81
2021/04/30 11:31:13;;;;;;;4.45;2.47;;;16.40;95.00;;;;;;5075661;28;20029;-83
2021/04/30 11:33:43;;;;;;;3.83;1.88;;;16.40;94.90;;;;;;5072684;28;20032;-82
2021/04/30 11:36:12;;;;;;;2.05;1.50;;;16.40;94.90;;;;;;5078402;28;20078;-81
2021/04/30 11:38:43;;;;;;;5.30;2.22;;;16.40;94.80;;;;;;5078120;28;20047;-82
2021/04/30 11:41:11;;;;;;;6.93;1.83;;;16.30;94.80;;;;;;5073635;28;20107;-81
2021/04/30 11:43:40;;;;;;;4.88;2.53;;;16.30;95.30;;;;;;5076771;28;20036;-82
2021/04/30 11:46:09;;;;;;;4.40;2.33;;;16.30;95.70;;;;;;5070048;28;20025;-82
2021/04/30 11:48:41;;;;;;;6.15;4.05;;;16.30;96.00;;;;;;5080221;28;20100;-82
2021/04/30 11:51:11;;;;;;;4.47;3.15;;;16.30;96.20;;;;;;5073901;28;20036;-81
2021/04/30 11:53:42;;;;;;;7.28;3.70;;;16.30;96.40;;;;;;5081039;28;20081;-82
2021/04/30 11:56:11;;;;;;;4.50;2.53;;;16.30;96.40;;;;;;5072351;28;20121;-82
2021/04/30 11:58:44;;;;;;;3.80;2.58;;;16.30;96.20;;;;;;5079145;28;20145;-82
2021/04/30 12:01:14;;;;;;;4.22;2.83;;;16.30;96.00;;;;;;5069802;28;20082;-82
2021/04/30 12:03:53;;;;;;;7.47;2.78;;;16.20;96.10;;;;;;5079706;28;20020;-82
2021/04/30 12:06:28;;;;;;;4.75;2.90;;;16.30;96.00;;;;;;5074946;28;20453;-83
2021/04/30 12:08:58;;;;;;;4.30;2.55;;;16.20;95.80;;;;;;5076324;28;20074;-82
2021/04/30 12:11:35;;;;;;;4.10;2.45;;;16.20;96.00;;;;;;5066045;28;20045;-81
2021/04/30 12:14:07;;;;;;;4.28;2.70;;;16.20;95.40;;;;;;5071085;28;20120;-82
2021/04/30 12:16:37;;;;;;;4.18;3.28;;;16.00;95.30;;;;;;5071538;28;20070;-82
2021/04/30 12:19:05;;;;;;;3.42;2.53;;;15.90;95.20;;;;;;5074656;28;20020;-81
2021/04/30 12:21:34;;;;;;;6.65;3.22;;;15.80;95.10;;;;;;5060746;28;20054;-82
2021/04/30 12:24:07;;;;;;;7.28;3.90;;;15.80;95.30;;;;;;5072004;28;20048;-83
2021/04/30 12:26:36;;;;;;;6.68;4.57;;;15.80;95.00;;;;;;5070022;28;20466;-83
2021/04/30 12:29:08;;;;;;;6.70;4.38;;;15.80;95.20;;;;;;5082448;28;20555;-81
2021/04/30 12:31:36;;;;;;;5.40;3.78;;;15.80;95.20;;;;;;5077004;28;20077;-82
2021/04/30 12:34:13;;;;;;;4.65;3.60;;;15.70;95.40;;;;;;5078870;28;20502;-81
2021/04/30 12:36:41;;;;;;;5.07;2.90;;;15.70;95.20;;;;;;5084022;28;20093;-82
2021/04/30 12:39:10;;;;;;;5.63;3.20;;;15.60;95.30;;;;;;5107330;28;20040;-80
2021/04/30 12:41:43;;;;;;;5.38;2.95;;;15.60;95.20;;;;;;5082523;28;20036;-81
2021/04/30 12:44:12;;;;;;;7.18;3.13;;;15.60;95.30;;;;;;5086565;28;20028;-81
2021/04/30 12:46:41;;;;;;;4.65;3.20;;;15.50;95.50;;;;;;5081828;28;20028;-81
2021/04/30 12:49:11;;;;;;;5.78;3.47;;;15.50;95.80;;;;;;5082287;28;20418;-80
2021/04/30 12:51:41;;;;;;;7.50;3.83;;;15.40;95.70;;;;;;5077004;28;20418;-82
2021/04/30 12:54:09;;;;;;;6.50;4.88;;;15.50;95.60;;;;;;5073212;28;20032;-82
2021/04/30 12:56:49;;;;;;;6.78;4.32;;;15.50;95.80;;;;;;5071366;28;20024;-80
2021/04/30 12:59:20;;;;;;;11.82;4.60;;;15.50;95.90;;;;;;5074560;28;20466;-80